createdAt,value
2022-09-22T00:00:12.511Z,99.90
2022-09-22T00:02:59.380Z,99.90
2022-09-22T00:05:45.333Z,99.90
2022-09-22T00:08:33.873Z,99.90
2022-09-22T00:11:22.083Z,99.90
2022-09-22T00:14:12.367Z,99.90
2022-09-22T00:17:03.649Z,99.90
2022-09-22T00:19:50.961Z,99.90
2022-09-22T00:22:37.105Z,99.90
2022-09-22T00:25:23.031Z,99.90
2022-09-22T00:28:10.080Z,99.90
2022-09-22T00:30:56.678Z,99.90
2022-09-22T00:33:43.695Z,99.90
2022-09-22T00:36:30.488Z,99.90
2022-09-22T00:39:18.437Z,99.90
2022-09-22T00:42:06.097Z,99.90
2022-09-22T00:44:52.411Z,99.90
2022-09-22T00:47:42.912Z,99.90
2022-09-22T00:50:29.011Z,99.90
2022-09-22T00:53:17.126Z,99.90
2022-09-22T00:56:08.983Z,99.90
2022-09-22T00:59:00.427Z,99.90
2022-09-22T01:01:46.718Z,99.90
2022-09-22T01:04:33.249Z,99.90
2022-09-22T01:07:26.153Z,99.90
2022-09-22T01:10:12.555Z,99.90
2022-09-22T01:13:27.363Z,99.90
2022-09-22T01:16:29.307Z,99.90
2022-09-22T01:19:18.074Z,99.90
2022-09-22T01:22:42.089Z,99.90
2022-09-22T01:25:57.911Z,99.90
2022-09-22T01:29:21.327Z,99.90
2022-09-22T01:32:21.391Z,99.90
2022-09-22T01:35:18.677Z,99.90
2022-09-22T01:38:33.269Z,99.90
2022-09-22T01:41:42.469Z,99.90
2022-09-22T01:44:32.480Z,99.90
2022-09-22T01:47:26.704Z,99.90
2022-09-22T01:50:38.552Z,99.90
2022-09-22T01:53:30.590Z,99.90
2022-09-22T01:56:19.830Z,99.90
2022-09-22T01:59:07.980Z,99.90
2022-09-22T02:02:02.377Z,99.90
2022-09-22T02:04:54.823Z,99.90
2022-09-22T02:07:45.893Z,99.90
2022-09-22T02:10:38.244Z,99.90
2022-09-22T02:13:25.318Z,99.90
2022-09-22T02:16:14.377Z,99.90
2022-09-22T02:19:13.301Z,99.90
2022-09-22T02:22:00.799Z,99.90
2022-09-22T02:24:47.158Z,99.90
2022-09-22T02:27:36.795Z,99.90
2022-09-22T02:30:23.752Z,99.90
2022-09-22T02:33:11.162Z,99.90
2022-09-22T02:36:21.098Z,99.90
2022-09-22T02:39:19.954Z,99.90
2022-09-22T02:42:40.042Z,99.90
2022-09-22T02:46:19.509Z,99.90
2022-09-22T02:49:14.691Z,99.90
2022-09-22T02:52:01.195Z,99.90
2022-09-22T02:54:47.176Z,99.90
2022-09-22T02:57:33.299Z,99.90
2022-09-22T03:00:19.582Z,99.90
2022-09-22T03:03:05.535Z,99.90
2022-09-22T03:05:51.459Z,99.90
2022-09-22T03:08:38.296Z,99.90
2022-09-22T03:11:26.058Z,99.90
2022-09-22T03:14:12.195Z,99.90
2022-09-22T03:16:58.019Z,99.90
2022-09-22T03:19:43.797Z,99.90
2022-09-22T03:22:29.726Z,99.90
2022-09-22T03:25:15.782Z,99.90
2022-09-22T03:28:02.021Z,99.90
2022-09-22T03:30:48.423Z,99.90
2022-09-22T03:33:34.693Z,99.90
2022-09-22T03:36:20.857Z,99.90
2022-09-22T03:39:07.143Z,99.90
2022-09-22T03:41:53.268Z,99.90
2022-09-22T03:44:39.197Z,99.90
2022-09-22T03:47:25.148Z,99.90
2022-09-22T03:50:11.078Z,99.90
2022-09-22T03:52:57.620Z,99.90
2022-09-22T03:55:43.435Z,99.90
2022-09-22T03:58:29.283Z,99.90
2022-09-22T04:01:15.482Z,99.90
2022-09-22T04:04:01.611Z,99.90
2022-09-22T04:06:47.767Z,99.90
2022-09-22T04:09:33.993Z,99.90
2022-09-22T04:12:20.169Z,99.90
2022-09-22T04:15:06.602Z,99.90
2022-09-22T04:17:52.465Z,99.90
2022-09-22T04:20:43.103Z,99.90
2022-09-22T04:23:28.985Z,99.90
2022-09-22T04:26:15.059Z,99.90
2022-09-22T04:29:01.180Z,99.90
2022-09-22T04:31:47.268Z,99.90
2022-09-22T04:34:33.372Z,99.90
2022-09-22T04:37:19.170Z,99.90
2022-09-22T04:40:12.126Z,99.90
2022-09-22T04:42:58.420Z,99.90
2022-09-22T04:45:48.847Z,99.90
2022-09-22T04:48:34.880Z,99.90
2022-09-22T04:51:20.820Z,99.90
2022-09-22T04:54:06.840Z,99.90
2022-09-22T04:56:52.687Z,99.90
2022-09-22T04:59:38.765Z,99.90
2022-09-22T05:02:24.835Z,99.90
2022-09-22T05:05:11.836Z,99.90
2022-09-22T05:07:58.302Z,99.90
2022-09-22T05:10:45.663Z,99.90
2022-09-22T05:13:31.839Z,99.90
2022-09-22T05:16:18.660Z,99.90
2022-09-22T05:19:04.812Z,99.90
2022-09-22T05:21:51.124Z,99.90
2022-09-22T05:24:37.174Z,99.90
2022-09-22T05:27:23.368Z,99.90
2022-09-22T05:30:09.951Z,99.90
2022-09-22T05:32:56.282Z,99.90
2022-09-22T05:35:42.235Z,99.90
2022-09-22T05:38:28.866Z,99.90
2022-09-22T05:41:15.155Z,99.90
2022-09-22T05:44:01.225Z,99.90
2022-09-22T05:46:47.823Z,99.90
2022-09-22T05:49:33.718Z,99.90
2022-09-22T05:52:22.011Z,99.90
2022-09-22T05:55:11.099Z,99.90
2022-09-22T05:57:57.944Z,99.90
2022-09-22T06:00:44.237Z,99.90
2022-09-22T06:03:30.458Z,99.90
2022-09-22T06:06:16.451Z,99.90
2022-09-22T06:09:02.391Z,99.90
2022-09-22T06:11:48.538Z,99.90
2022-09-22T06:14:35.292Z,99.90
2022-09-22T06:17:23.423Z,99.90
2022-09-22T06:20:09.560Z,99.90
2022-09-22T06:22:56.616Z,99.90
2022-09-22T06:25:43.734Z,99.90
2022-09-22T06:28:30.201Z,99.90
2022-09-22T06:31:16.302Z,99.90
2022-09-22T06:34:06.909Z,99.90
2022-09-22T06:36:57.124Z,99.90
2022-09-22T06:39:43.181Z,99.90
2022-09-22T06:42:29.129Z,99.90
2022-09-22T06:45:16.112Z,99.90
2022-09-22T06:48:07.571Z,99.90
2022-09-22T06:50:55.854Z,99.90
2022-09-22T06:53:41.686Z,99.90
2022-09-22T06:56:28.091Z,99.90
2022-09-22T06:59:14.565Z,99.90
2022-09-22T07:02:04.353Z,99.90
2022-09-22T07:04:52.205Z,99.90
2022-09-22T07:07:38.469Z,99.90
2022-09-22T07:10:24.378Z,99.90
2022-09-22T07:13:11.292Z,99.90
2022-09-22T07:16:05.752Z,99.90
2022-09-22T07:18:57.447Z,99.90
2022-09-22T07:21:44.237Z,99.90
2022-09-22T07:24:30.172Z,99.90
2022-09-22T07:27:26.062Z,99.90
2022-09-22T07:30:14.012Z,99.90
2022-09-22T07:33:01.188Z,99.90
2022-09-22T07:35:47.383Z,99.90
2022-09-22T07:38:36.543Z,99.90
2022-09-22T07:41:24.797Z,99.90
2022-09-22T07:44:31.833Z,99.90
2022-09-22T07:47:37.822Z,99.90
2022-09-22T07:50:24.863Z,99.90
2022-09-22T07:53:11.335Z,99.90
2022-09-22T07:56:03.995Z,99.90
2022-09-22T07:58:54.227Z,99.90
2022-09-22T08:01:47.477Z,99.90
2022-09-22T08:04:33.529Z,99.90
2022-09-22T08:07:19.523Z,99.90
2022-09-22T08:10:06.056Z,99.90
2022-09-22T08:12:58.009Z,99.90
2022-09-22T08:15:44.475Z,99.90
2022-09-22T08:18:32.022Z,99.90
2022-09-22T08:21:19.200Z,99.90
2022-09-22T08:24:07.595Z,99.90
2022-09-22T08:26:55.936Z,99.90
2022-09-22T08:29:43.855Z,99.90
2022-09-22T08:32:30.435Z,99.90
2022-09-22T08:35:16.604Z,99.90
2022-09-22T08:38:02.431Z,99.90
2022-09-22T08:40:59.495Z,99.90
2022-09-22T08:43:59.244Z,99.90
2022-09-22T08:46:46.857Z,99.90
2022-09-22T08:50:00.855Z,99.90
2022-09-22T08:52:54.016Z,99.90
2022-09-22T08:55:43.109Z,99.90
2022-09-22T08:58:41.480Z,99.90
2022-09-22T09:01:53.932Z,99.90
2022-09-22T09:04:43.070Z,99.90
2022-09-22T09:07:47.807Z,99.90
2022-09-22T09:11:09.505Z,99.90
2022-09-22T09:14:12.478Z,99.90
2022-09-22T09:17:05.029Z,99.90
2022-09-22T09:19:57.824Z,99.90
2022-09-22T09:22:57.226Z,99.90
2022-09-22T09:25:46.304Z,99.90
2022-09-22T09:28:42.843Z,99.90
2022-09-22T09:31:38.273Z,99.90
2022-09-22T09:34:28.981Z,99.90
2022-09-22T09:37:16.100Z,99.90
2022-09-22T09:40:04.157Z,99.90
2022-09-22T09:43:03.384Z,99.90
2022-09-22T09:46:08.436Z,99.90
2022-09-22T09:49:21.598Z,99.90
2022-09-22T09:52:12.735Z,99.90
2022-09-22T09:55:01.416Z,99.90
2022-09-22T09:58:03.412Z,99.90
2022-09-22T10:00:59.601Z,99.90
2022-09-22T10:03:51.737Z,99.90
2022-09-22T10:06:37.625Z,99.90
2022-09-22T10:09:30.588Z,99.90
2022-09-22T10:12:28.766Z,99.90
2022-09-22T10:15:26.368Z,99.90
2022-09-22T10:18:24.525Z,99.90
2022-09-22T10:21:15.303Z,99.90
2022-09-22T10:24:01.960Z,99.90
2022-09-22T10:26:57.457Z,99.90
2022-09-22T10:29:43.478Z,99.90
2022-09-22T10:32:29.375Z,99.90
2022-09-22T10:35:36.083Z,99.90
2022-09-22T10:38:32.157Z,99.90
2022-09-22T10:41:27.307Z,99.90
2022-09-22T10:48:00.559Z,99.90
2022-09-22T10:50:52.946Z,99.90
2022-09-22T10:53:46.197Z,99.90
2022-09-22T10:56:43.835Z,99.90
2022-09-22T11:00:07.760Z,99.90
2022-09-22T11:03:03.047Z,99.90
2022-09-22T11:06:33.249Z,99.90
2022-09-22T11:09:52.199Z,99.90
2022-09-22T11:13:05.867Z,99.90
2022-09-22T11:16:11.658Z,99.90
2022-09-22T11:19:28.023Z,99.90
2022-09-22T11:22:51.807Z,99.90
2022-09-22T11:25:46.733Z,99.90
2022-09-22T11:28:57.398Z,99.90
2022-09-22T11:31:59.314Z,99.90
2022-09-22T11:35:12.349Z,99.90
2022-09-22T11:38:09.585Z,99.90
2022-09-22T11:41:25.957Z,99.90
2022-09-22T11:44:40.713Z,99.90
2022-09-22T11:47:48.875Z,99.90
2022-09-22T11:50:44.833Z,99.90
2022-09-22T11:53:43.392Z,99.90
2022-09-22T11:56:34.508Z,99.90
2022-09-22T11:59:39.695Z,99.90
2022-09-22T12:02:35.737Z,99.90
2022-09-22T12:05:43.621Z,99.90
2022-09-22T12:08:35.704Z,99.90
2022-09-22T12:11:25.893Z,99.90
2022-09-22T12:14:14.605Z,99.90
2022-09-22T12:17:09.738Z,99.90
2022-09-22T12:20:05.611Z,99.90
2022-09-22T12:23:05.700Z,99.90
2022-09-22T12:25:54.461Z,99.90
2022-09-22T12:28:43.682Z,99.90
2022-09-22T12:31:40.559Z,99.90
2022-09-22T12:34:28.399Z,99.90
2022-09-22T12:37:31.724Z,99.90
2022-09-22T12:40:18.694Z,99.90
2022-09-22T12:43:06.049Z,99.90
2022-09-22T12:45:55.153Z,99.90
2022-09-22T12:48:45.518Z,99.90
2022-09-22T12:51:33.187Z,99.90
2022-09-22T12:54:22.363Z,99.90
2022-09-22T12:57:08.728Z,99.90
2022-09-22T13:00:13.157Z,99.90
2022-09-22T13:02:59.788Z,99.90
2022-09-22T13:05:47.114Z,99.90
2022-09-22T13:08:33.228Z,99.90
2022-09-22T13:11:19.718Z,99.90
2022-09-22T13:14:52.920Z,99.90
2022-09-22T13:17:44.071Z,99.90
2022-09-22T13:20:35.087Z,99.90
2022-09-22T13:23:21.699Z,99.90
2022-09-22T13:26:13.073Z,99.90
2022-09-22T13:29:16.312Z,99.90
2022-09-22T13:32:18.362Z,99.90
2022-09-22T13:35:23.163Z,99.90
2022-09-22T13:38:13.332Z,99.80
2022-09-22T13:40:59.280Z,99.50
2022-09-22T13:43:49.815Z,99.60
2022-09-22T13:46:43.177Z,99.40
2022-09-22T13:49:34.560Z,99.40
2022-09-22T13:52:24.674Z,99.30
2022-09-22T13:55:21.726Z,99.10
2022-09-22T13:58:12.616Z,99.00
2022-09-22T14:01:15.563Z,99.00
2022-09-22T14:04:03.458Z,98.90
2022-09-22T14:06:50.542Z,98.80
2022-09-22T14:09:38.678Z,98.60
2022-09-22T14:12:24.960Z,98.50
2022-09-22T14:15:33.369Z,98.20
2022-09-22T14:18:26.464Z,98.00
2022-09-22T14:21:13.274Z,97.80
2022-09-22T14:23:59.692Z,97.90
2022-09-22T14:26:52.578Z,97.90
2022-09-22T14:29:40.097Z,98.00
2022-09-22T14:32:39.703Z,98.10
2022-09-22T14:35:25.659Z,97.80
2022-09-22T14:38:21.715Z,97.70
2022-09-22T14:41:24.547Z,97.70
2022-09-22T14:44:43.368Z,97.60
2022-09-22T14:47:30.507Z,97.60
2022-09-22T14:50:37.204Z,97.80
2022-09-22T14:53:43.980Z,97.80
2022-09-22T14:56:33.641Z,97.60
2022-09-22T14:59:38.048Z,97.50
2022-09-22T15:02:34.116Z,97.00
2022-09-22T15:05:31.247Z,97.00
2022-09-22T15:08:25.520Z,97.00
2022-09-22T15:11:11.677Z,96.90
2022-09-22T15:13:57.494Z,96.80
2022-09-22T15:16:43.798Z,96.60
2022-09-22T15:19:35.612Z,96.40
2022-09-22T15:22:22.063Z,96.30
2022-09-22T15:25:16.230Z,96.20
2022-09-22T15:28:07.498Z,96.10
2022-09-22T15:30:54.293Z,96.40
2022-09-22T15:33:40.670Z,96.00
2022-09-22T15:36:28.613Z,95.90
2022-09-22T15:39:21.755Z,96.00
2022-09-22T15:42:11.140Z,96.10
2022-09-22T15:44:57.321Z,96.10
2022-09-22T15:47:45.336Z,96.30
2022-09-22T15:50:31.628Z,96.30
2022-09-22T15:53:17.772Z,96.50
2022-09-22T15:56:06.811Z,96.80
2022-09-22T15:58:52.882Z,97.00
2022-09-22T16:01:40.624Z,97.20
2022-09-22T16:04:32.481Z,97.40
2022-09-22T16:07:19.229Z,97.60
2022-09-22T16:10:05.744Z,97.80
2022-09-22T16:12:51.808Z,97.90
2022-09-22T16:15:39.155Z,98.10
2022-09-22T16:18:25.392Z,98.30
2022-09-22T16:21:26.041Z,98.40
2022-09-22T16:24:12.121Z,98.50
2022-09-22T16:26:58.105Z,98.70
2022-09-22T16:29:44.157Z,98.80
2022-09-22T16:32:30.644Z,98.90
2022-09-22T16:35:17.212Z,99.00
2022-09-22T16:38:03.248Z,99.10
2022-09-22T16:41:28.711Z,99.30
2022-09-22T16:44:15.903Z,99.40
2022-09-22T16:47:02.284Z,99.50
2022-09-22T16:49:51.260Z,99.70
2022-09-22T16:52:38.196Z,99.80
2022-09-22T16:55:24.215Z,99.90
2022-09-22T16:58:13.148Z,99.90
2022-09-22T17:01:03.653Z,99.90
2022-09-22T17:03:51.089Z,99.90
2022-09-22T17:06:38.332Z,99.90
2022-09-22T17:09:24.405Z,99.90
2022-09-22T17:12:10.947Z,99.90
2022-09-22T17:14:57.994Z,99.90
2022-09-22T17:17:43.753Z,99.90
2022-09-22T17:20:30.559Z,99.90
2022-09-22T17:23:22.387Z,99.90
2022-09-22T17:26:11.565Z,99.90
2022-09-22T17:28:59.573Z,99.90
2022-09-22T17:31:49.619Z,99.90
2022-09-22T17:34:38.232Z,99.90
2022-09-22T17:37:24.944Z,99.90
2022-09-22T17:40:11.983Z,99.90
2022-09-22T17:42:58.361Z,99.90
2022-09-22T17:45:45.325Z,99.90
2022-09-22T17:48:50.339Z,99.90
2022-09-22T17:51:59.882Z,99.90
2022-09-22T17:55:04.100Z,99.90
2022-09-22T17:57:52.568Z,99.90
2022-09-22T18:00:38.862Z,99.90
2022-09-22T18:03:25.675Z,99.90
2022-09-22T18:06:16.336Z,99.90
2022-09-22T18:09:02.621Z,99.90
2022-09-22T18:11:49.220Z,99.90
2022-09-22T18:14:35.843Z,99.90
2022-09-22T18:17:26.291Z,99.90
2022-09-22T18:20:18.304Z,99.90
2022-09-22T18:23:04.620Z,99.90
2022-09-22T18:25:51.278Z,99.90
2022-09-22T18:28:37.300Z,99.90
2022-09-22T18:31:27.164Z,99.90
2022-09-22T18:34:14.148Z,99.90
2022-09-22T18:37:01.683Z,99.90
2022-09-22T18:39:50.384Z,99.90
2022-09-22T18:42:36.715Z,99.90
2022-09-22T18:45:23.249Z,99.90
2022-09-22T18:48:09.396Z,99.90
2022-09-22T18:50:55.439Z,99.90
2022-09-22T18:53:41.589Z,99.90
2022-09-22T18:56:27.679Z,99.90
2022-09-22T18:59:20.118Z,99.90
2022-09-22T19:02:10.707Z,99.90
2022-09-22T19:04:57.851Z,99.90
2022-09-22T19:07:47.570Z,99.90
2022-09-22T19:10:33.919Z,99.90
2022-09-22T19:13:20.606Z,99.90
2022-09-22T19:16:07.434Z,99.90
2022-09-22T19:18:53.514Z,99.90
2022-09-22T19:21:39.815Z,99.90
2022-09-22T19:24:26.425Z,99.90
2022-09-22T19:27:15.086Z,99.90
2022-09-22T19:30:01.951Z,99.90
2022-09-22T19:32:47.964Z,99.90
2022-09-22T19:35:38.909Z,99.90
2022-09-22T19:38:25.334Z,99.90
2022-09-22T19:41:12.222Z,99.90
2022-09-22T19:43:58.290Z,99.90
2022-09-22T19:46:45.414Z,99.90
2022-09-22T19:49:32.151Z,99.90
2022-09-22T19:52:18.056Z,99.90
2022-09-22T19:55:05.732Z,99.90
2022-09-22T19:57:52.312Z,99.90
2022-09-22T20:00:38.520Z,99.90
2022-09-22T20:03:25.801Z,99.90
2022-09-22T20:06:12.534Z,99.90
2022-09-22T20:09:04.432Z,99.90
2022-09-22T20:11:52.389Z,99.90
2022-09-22T20:14:38.528Z,99.90
2022-09-22T20:17:24.729Z,99.90
2022-09-22T20:20:10.874Z,99.90
2022-09-22T20:23:01.956Z,99.90
2022-09-22T20:25:50.070Z,99.90
2022-09-22T20:28:36.408Z,99.90
2022-09-22T20:31:24.526Z,99.90
2022-09-22T20:34:18.365Z,99.90
2022-09-22T20:37:04.434Z,99.90
2022-09-22T20:39:50.942Z,99.90
2022-09-22T20:42:37.141Z,99.90
2022-09-22T20:45:22.938Z,99.90
2022-09-22T20:48:18.549Z,99.90
2022-09-22T20:51:04.874Z,99.90
2022-09-22T20:53:50.903Z,99.90
2022-09-22T20:56:41.965Z,99.90
2022-09-22T20:59:28.859Z,99.90
2022-09-22T21:02:15.609Z,99.90
2022-09-22T21:05:02.167Z,99.90
2022-09-22T21:08:08.242Z,99.90
2022-09-22T21:10:54.502Z,99.90
2022-09-22T21:13:41.354Z,99.90
2022-09-22T21:16:28.458Z,99.90
2022-09-22T21:19:14.896Z,99.90
2022-09-22T21:22:01.295Z,99.90
2022-09-22T21:24:48.859Z,99.90
2022-09-22T21:27:35.775Z,99.90
2022-09-22T21:30:22.040Z,99.90
2022-09-22T21:33:12.468Z,99.90
2022-09-22T21:36:08.531Z,99.90
2022-09-22T21:38:59.755Z,99.90
2022-09-22T21:41:45.541Z,99.90
2022-09-22T21:44:31.578Z,99.90
2022-09-22T21:47:17.467Z,99.90
2022-09-22T21:50:03.609Z,99.90
2022-09-22T21:52:49.941Z,99.90
2022-09-22T21:55:36.191Z,99.90
2022-09-22T21:58:22.545Z,99.90
2022-09-22T22:01:24.004Z,99.90
2022-09-22T22:04:13.732Z,99.90
2022-09-22T22:07:00.640Z,99.90
2022-09-22T22:09:46.750Z,99.90
2022-09-22T22:12:32.718Z,99.90
2022-09-22T22:15:18.629Z,99.90
2022-09-22T22:18:04.855Z,99.90
2022-09-22T22:21:06.389Z,99.90
2022-09-22T22:23:55.317Z,99.90
2022-09-22T22:26:42.156Z,99.90
2022-09-22T22:29:31.776Z,99.90
2022-09-22T22:32:18.053Z,99.90
2022-09-22T22:35:04.210Z,99.90
2022-09-22T22:37:51.798Z,99.90
2022-09-22T22:40:40.325Z,99.90
2022-09-22T22:43:26.883Z,99.90
2022-09-22T22:46:16.552Z,99.90
2022-09-22T22:49:03.015Z,99.90
2022-09-22T22:51:49.843Z,99.90
2022-09-22T22:54:36.381Z,99.90
2022-09-22T22:57:22.842Z,99.90
2022-09-22T23:00:09.723Z,99.90
2022-09-22T23:02:55.798Z,99.90
2022-09-22T23:05:43.540Z,99.90
2022-09-22T23:08:29.661Z,99.90
2022-09-22T23:11:39.912Z,99.90
2022-09-22T23:14:26.141Z,99.90
2022-09-22T23:17:12.265Z,99.90
2022-09-22T23:19:58.237Z,99.90
2022-09-22T23:22:44.240Z,99.90
2022-09-22T23:25:33.515Z,99.90
2022-09-22T23:28:20.475Z,99.90
2022-09-22T23:31:17.002Z,99.90
2022-09-22T23:34:03.605Z,99.90
2022-09-22T23:36:50.011Z,99.90
2022-09-22T23:39:36.227Z,99.90
2022-09-22T23:42:22.138Z,99.90
2022-09-22T23:45:09.387Z,99.90
2022-09-22T23:47:55.988Z,99.90
2022-09-22T23:50:47.092Z,99.90
2022-09-22T23:53:34.883Z,99.90
2022-09-22T23:56:20.807Z,99.90
2022-09-22T23:59:06.924Z,99.90
